Flight Track Log - Related Links

Times and Time Zones

All times are in EDT time to prevent confusion due to time zone crossing. See the AAL297 flight status page for this flight to view local times or setup timezone preferences in your user account.

Time Position Orientation Groundspeed Altitude Reporting Facility
EDT Latitude Longitude Course Direction KTS MPH feet Rate Location/Type
Mon 07:36:57 PM 33.9310 -118.4680 263° West 212 244 2,200  Level FlightAware ADS-B
Mon 07:37:32 PM 33.9270 -118.5150 264° West 253 291 3,300 2,200 Climbing FlightAware ADS-B
Mon 07:37:57 PM 33.9240 -118.5480 264° West 260 299 4,400 2,836 Climbing FlightAware ADS-B
Mon 07:38:27 PM 33.9210 -118.5900 265° West 268 308 5,900 3,000 Climbing FlightAware ADS-B
Mon 07:38:57 PM 33.9180 -118.6390 266° West 277 319 7,400 3,164 Climbing FlightAware ADS-B
Mon 07:39:22 PM 33.9140 -118.6770 263° West 275 316 8,800 2,743 Climbing FlightAware ADS-B
Mon 07:40:07 PM 33.9090 -118.7480 265° West 299 344 10,600 1,875 Climbing FlightAware ADS-B
Mon 07:40:42 PM 33.9040 -118.8050 264° West 334 384 11,300 2,175 Climbing FlightAware ADS-B
Mon 07:41:27 PM 33.8970 -118.8960 265° West 342 394 13,500 2,867 Climbing FlightAware ADS-B
Mon 07:42:12 PM 33.8980 -118.9790 271° West 348 400 15,600 2,720 Climbing FlightAware ADS-B
Mon 07:42:42 PM 33.9210 -119.0290 299° West 364 419 16,900 2,475 Climbing FlightAware ADS-B
Mon 07:43:32 PM 33.9780 -119.1020 313° West 370 426 18,900 2,463 Climbing FlightAware ADS-B
Mon 07:44:17 PM 34.0330 -119.1730 313° West 373 429 20,800 2,400 Climbing FlightAware ADS-B
Mon 07:44:52 PM 34.0750 -119.2270 313° West 376 433 22,100 2,047 Climbing FlightAware ADS-B
Mon 07:45:42 PM 34.1360 -119.3060 313° West 382 440 23,700 1,933 Climbing FlightAware ADS-B
Mon 07:46:22 PM 34.1840 -119.3690 313° West 384 442 25,000 1,840 Climbing FlightAware ADS-B
Mon 07:46:57 PM 34.2260 -119.4220 314° West 388 447 26,000 1,624 Climbing FlightAware ADS-B
Mon 07:47:47 PM 34.2890 -119.5050 313° West 394 453 27,300 1,067 Climbing FlightAware ADS-B
Mon 07:48:27 PM 34.3330 -119.5630 313° West 395 455 27,600 1,500 Climbing FlightAware ADS-B
Mon 07:49:07 PM 34.3840 -119.6290 313° West 399 459 29,300 1,271 Climbing FlightAware ADS-B
Mon 07:49:52 PM 34.4360 -119.7000 312° West 399 459 29,400 1,275 Climbing FlightAware ADS-B
Mon 07:50:27 PM 34.4870 -119.7640 314° West 406 467 31,000 2,188 Climbing FlightAware ADS-B
Mon 07:51:17 PM 34.5510 -119.8500 312° West 399 459 32,500 1,600 Climbing FlightAware ADS-B
Mon 07:51:57 PM 34.6000 -119.9150 312° West 397 457 33,400 1,059 Climbing FlightAware ADS-B
Mon 07:52:42 PM 34.6530 -119.9880 311° West 397 457 34,000 450 Climbing FlightAware ADS-B
Mon 07:53:17 PM 34.6920 -120.0420 311° West 397 457 34,000  Level FlightAware ADS-B
Mon 07:53:57 PM 34.7330 -120.1000 311° West 397 457 34,000  Level FlightAware ADS-B
Mon 07:54:47 PM 34.8110 -120.2010 313° West 405 466 34,000  Level FlightAware ADS-B
Mon 07:55:27 PM 34.8570 -120.2640 312° West 406 467 34,000  Level FlightAware ADS-B
Mon 07:56:07 PM 34.8990 -120.3230 311° West 406 467 34,000  Level FlightAware ADS-B
Mon 07:56:47 PM 34.9410 -120.3820 311° West 406 467 34,000  Level FlightAware ADS-B
Mon 07:57:27 PM 34.9830 -120.4400 311° West 406 467 34,000 1,067 Level FlightAware ADS-B
Mon 07:58:17 PM 35.0780 -120.5630 313° West 417 480 35,600 1,400 Climbing FlightAware ADS-B
Mon 07:58:57 PM 35.1290 -120.6320 312° West 421 484 36,100 282 Climbing FlightAware ADS-B
Mon 07:59:42 PM 35.1890 -120.7150 312° West 425 489 36,000 -60 Descending FlightAware ADS-B
Mon 08:00:37 PM 35.2530 -120.8040 311° West 426 490 36,000  Level FlightAware ADS-B
Mon 08:01:17 PM 35.3120 -120.8840 312° West 432 497 36,000  Level FlightAware ADS-B
Mon 08:02:02 PM 35.3740 -120.9690 312° West 432 497 36,000  Level FlightAware ADS-B
Mon 08:02:32 PM 35.4140 -121.0250 311° West 433 498 36,000  Level FlightAware ADS-B
Mon 08:03:22 PM 35.4800 -121.1160 312° West 435 501 36,000  Level FlightAware ADS-B
Mon 08:04:07 PM 35.5400 -121.1990 312° West 436 502 36,000  Level FlightAware ADS-B
Mon 08:04:47 PM 35.5920 -121.2720 311° West 436 502 36,000  Level FlightAware ADS-B
Mon 08:05:32 PM 35.6540 -121.3580 312° West 437 503 36,000  Level FlightAware ADS-B
Mon 08:06:12 PM 35.7080 -121.4340 311° West 440 506 36,000  Level FlightAware ADS-B
Mon 08:06:52 PM 35.7610 -121.5080 311° West 441 507 36,000  Level FlightAware ADS-B
Mon 08:07:37 PM 35.8240 -121.5950 312° West 443 510 36,000  Level FlightAware ADS-B
Mon 08:08:17 PM 35.8730 -121.6650 311° West 445 512 36,000  Level FlightAware ADS-B
Mon 08:09:02 PM 35.9380 -121.7560 311° West 447 514 36,000  Level FlightAware ADS-B
Mon 08:09:42 PM 35.9880 -121.8330 309° West 445 512 36,000  Level FlightAware ADS-B
Mon 08:10:22 PM 36.0280 -121.9100 303° West 444 511 36,000  Level FlightAware ADS-B
Mon 08:11:02 PM 36.0650 -121.9830 302° West 444 511 36,000  Level FlightAware ADS-B
Mon 08:11:42 PM 36.1020 -122.0570 302° West 444 511 36,000  Level FlightAware ADS-B
Mon 08:12:32 PM 36.1250 -122.2280 280° West 443 510 36,000  Level FlightAware ADS-B
Mon 08:13:12 PM 36.1570 -122.3220 293° West 442 509 36,000  Level FlightAware ADS-B
Mon 08:13:52 PM 36.1860 -122.4120 292° West 443 510 36,000  Level FlightAware ADS-B
Mon 08:14:37 PM 36.2150 -122.5000 292° West 442 509 36,000  Level FlightAware ADS-B
Mon 08:15:27 PM 36.2570 -122.6290 292° West 443 510 36,000  Level FlightAware ADS-B
Mon 08:16:07 PM 36.2850 -122.7160 292° West 443 510 36,000  Level FlightAware ADS-B
Mon 08:16:57 PM 36.3180 -122.8170 292° West 443 510 36,000  Level FlightAware ADS-B
Mon 08:17:37 PM 36.3440 -122.8970 292° West 443 510 36,000  Level FlightAware ADS-B
Mon 08:18:17 PM 36.3700 -122.9770 292° West 443 510 36,000  Level FlightAware ADS-B
Mon 08:18:57 PM 36.3960 -123.0570 292° West 443 510 36,000  Level FlightAware ADS-B
Mon 08:19:37 PM 36.4220 -123.1380 292° West 443 510 36,000  Level FlightAware ADS-B
Mon 08:20:27 PM 36.4550 -123.2380 292° West 443 510 36,000  Level FlightAware ADS-B
Mon 08:21:07 PM 36.4810 -123.3180 292° West 443 510 36,000  Level FlightAware ADS-B
Mon 08:21:47 PM 36.5070 -123.3990 292° West 443 510 36,000  Level FlightAware ADS-B
Mon 08:22:27 PM 36.5330 -123.4790 292° West 443 510 36,000  Level FlightAware ADS-B
Mon 08:23:07 PM 36.5590 -123.5590 292° West 443 510 36,000  Level FlightAware ADS-B
Mon 08:23:57 PM 36.5920 -123.6600 292° West 443 510 36,000  Level FlightAware ADS-B
Mon 08:24:37 PM 36.6180 -123.7410 292° West 443 510 36,000  Level FlightAware ADS-B
Mon 08:25:17 PM 36.6440 -123.8210 292° West 443 510 36,000  Level FlightAware ADS-B
Mon 08:26:28 PM 36.7489 -124.1742 288° West 445 512 36,000  Level Oakland Center
Mon 08:28:30 PM 36.8392 -124.4664 291° West 452 520 36,000  Level Oakland Center
Mon 08:29:31 PM 36.8839 -124.6142 291° West 454 522 36,000  Level Oakland Center
Mon 08:30:32 PM 36.9275 -124.7614 290° West 452 520 36,000  Level Oakland Center
Mon 08:31:34 PM 36.9728 -124.9103 291° West 456 525 36,000  Level Oakland Center
Mon 08:32:00 PM 36.9253 -124.7739 288° West  Level FlightAware Approximate
Mon 08:32:35 PM 36.9858 -125.0675 276° West 464 534 36,000  Level Oakland Center
Mon 08:33:36 PM 36.9350 -125.2517 251° West 468 539 36,000  Level Oakland Center
Mon 08:34:37 PM 36.8933 -125.4050 251° West 467 537 36,000  Level Oakland Center
Mon 08:35:38 PM 36.8506 -125.5569 251° West 466 536 36,000  Level Oakland Center
Mon 08:36:39 PM 36.8083 -125.7114 251° West 469 540 36,000  Level Oakland Center
Mon 08:37:40 PM 36.7664 -125.8642 251° West 468 539 36,000  Level Oakland Center
Mon 08:38:41 PM 36.7244 -126.0172 251° West 468 539 36,000  Level Oakland Center
Mon 08:39:43 PM 36.6811 -126.1694 250° West 468 539 36,000  Level Oakland Center
Mon 08:40:44 PM 36.6378 -126.3211 250° West 467 537 36,000  Level Oakland Center
Mon 08:41:45 PM 36.5947 -126.4736 251° West 467 537 36,000  Level Oakland Center
Mon 08:42:46 PM 36.5547 -126.6269 252° West 467 537 36,000  Level Oakland Center
Mon 08:43:47 PM 36.5131 -126.7789 251° West 466 536 36,000  Level Oakland Center
Mon 08:45:00 PM 36.4423 -126.9436 250° West  Level FlightAware Approximate
Mon 08:48:05 PM 36.4667 -126.9333 250° West 452 520 36,000  Level Oakland Oceanic (ODAPS)
Mon 08:52:00 PM 36.1521 -127.9425 250° West  Level FlightAware Approximate
Mon 08:53:00 PM 36.1099 -128.0846 250° West  Level FlightAware Approximate
Mon 08:54:00 PM 36.0312 -128.3943 249° West 452 520 36,000  Level FlightAware Transoceanic
Mon 08:55:00 PM 35.9867 -128.5395 249° West 452 520 36,000  Level FlightAware Transoceanic
Mon 08:56:00 PM 35.9420 -128.6846 249° West 452 520 36,000  Level FlightAware Transoceanic
Mon 08:57:00 PM 35.8971 -128.8294 249° West 452 520 36,000  Level FlightAware Transoceanic
Mon 08:58:00 PM 35.8521 -128.9742 249° West 452 520 36,000  Level FlightAware Transoceanic
Mon 08:59:00 PM 35.8069 -129.1187 249° West 452 520 36,000  Level FlightAware Transoceanic
Mon 09:00:00 PM 35.7615 -129.2631 249° West 452 520 36,000  Level FlightAware Transoceanic
Mon 09:01:00 PM 35.7160 -129.4073 249° West 452 520 36,000  Level FlightAware Transoceanic
Mon 09:02:00 PM 35.6702 -129.5513 249° West 452 520 36,000  Level FlightAware Transoceanic
Mon 09:03:00 PM 35.6243 -129.6952 249° West 452 520 36,000  Level FlightAware Transoceanic
Mon 09:04:00 PM 35.5783 -129.8389 248° West 452 520 36,000  Level FlightAware Transoceanic
Mon 09:05:00 PM 35.5320 -129.9825 248° West 452 520 36,000  Level FlightAware Transoceanic
Mon 09:06:00 PM 35.4856 -130.1259 248° West 452 520 36,000  Level FlightAware Transoceanic
Mon 09:07:00 PM 35.4390 -130.2691 248° West 452 520 36,000  Level FlightAware Transoceanic
Mon 09:08:00 PM 35.3923 -130.4122 248° West 452 520 36,000  Level FlightAware Transoceanic
Mon 09:09:00 PM 35.3454 -130.5551 248° West 452 520 36,000  Level FlightAware Transoceanic
Mon 09:10:00 PM 35.2983 -130.6978 248° West 452 520 36,000  Level FlightAware Transoceanic
Mon 09:11:00 PM 35.2510 -130.8403 248° West 452 520 36,000  Level FlightAware Transoceanic
Mon 09:12:00 PM 35.2036 -130.9827 248° West 452 520 36,000  Level FlightAware Transoceanic
Mon 09:13:00 PM 35.1560 -131.1249 248° West 452 520 36,000  Level FlightAware Transoceanic
Mon 09:14:00 PM 35.1082 -131.2670 248° West 452 520 36,000  Level FlightAware Transoceanic
Mon 09:15:00 PM 35.0603 -131.4089 248° West 452 520 36,000  Level FlightAware Transoceanic
Mon 09:16:00 PM 35.0122 -131.5506 247° West 452 520 36,000  Level FlightAware Transoceanic
Mon 09:17:00 PM 34.9640 -131.6922 247° West 452 520 36,000  Level FlightAware Transoceanic
Mon 09:18:00 PM 34.9156 -131.8336 247° West 452 520 36,000  Level FlightAware Transoceanic
Mon 09:19:00 PM 34.8670 -131.9748 247° West 452 520 36,000  Level FlightAware Transoceanic
Mon 09:20:00 PM 34.8183 -132.1158 247° West 452 520 36,000  Level FlightAware Transoceanic
Mon 09:21:00 PM 34.7694 -132.2567 247° West 452 520 36,000  Level FlightAware Transoceanic
Mon 09:22:00 PM 34.7203 -132.3974 247° West 452 520 36,000  Level FlightAware Transoceanic
Mon 09:23:00 PM 34.6711 -132.5380 247° West 452 520 36,000  Level FlightAware Transoceanic
Mon 09:24:00 PM 34.6217 -132.6784 247° West 452 520 36,000  Level FlightAware Transoceanic
Mon 09:25:00 PM 34.5722 -132.8186 247° West 452 520 36,000  Level FlightAware Transoceanic
Mon 09:26:00 PM 34.5224 -132.9587 247° West 452 520 36,000  Level FlightAware Transoceanic
Mon 09:27:00 PM 34.4726 -133.0986 247° West 452 520 36,000  Level FlightAware Transoceanic
Mon 09:28:00 PM 34.4226 -133.2383 246° West 452 520 36,000  Level FlightAware Transoceanic
Mon 09:29:00 PM 34.3724 -133.3778 246° West 452 520 36,000  Level FlightAware Transoceanic
Mon 09:30:00 PM 34.3220 -133.5172 246° West 452 520 36,000  Level FlightAware Transoceanic
Mon 09:31:00 PM 34.2715 -133.6564 246° West 452 520 36,000  Level FlightAware Transoceanic
Mon 09:32:00 PM 34.2209 -133.7955 246° West 452 520 36,000  Level FlightAware Transoceanic
Mon 09:33:00 PM 34.1701 -133.9344 246° West 452 520 36,000  Level FlightAware Transoceanic
Mon 09:34:00 PM 34.1191 -134.0731 246° West 452 520 36,000  Level FlightAware Transoceanic
Mon 09:35:00 PM 34.0680 -134.2116 246° West 452 520 36,000  Level FlightAware Transoceanic
Mon 09:36:00 PM 34.0167 -134.3500 246° West 452 520 36,000  Level FlightAware Transoceanic
Mon 09:37:00 PM 33.9659 -134.4875 246° West 452 520 36,000  Level FlightAware Transoceanic
Mon 09:38:00 PM 33.9149 -134.6248 246° West 452 520 36,000  Level FlightAware Transoceanic
Mon 09:39:00 PM 33.8638 -134.7620 246° West 452 520 36,000  Level FlightAware Transoceanic
Mon 09:40:00 PM 33.8126 -134.8990 246° West 452 520 36,000  Level FlightAware Transoceanic
Mon 09:41:00 PM 33.7612 -135.0358 246° West 452 520 36,000 1,765 Level FlightAware Transoceanic
Mon 09:41:08 PM 34.0167 -134.3500 246° West 426 490 38,000  Climbing Oakland Oceanic (ODAPS)
Mon 09:42:00 PM 33.7096 -135.1725 246° West 452 520 36,000 -1,071 Descending FlightAware Transoceanic
Mon 09:43:00 PM 33.6579 -135.3090 245° Southwest 452 520 36,000  Level FlightAware Transoceanic
Mon 09:44:00 PM 33.6061 -135.4454 245° Southwest 452 520 36,000  Level FlightAware Transoceanic
Mon 09:45:00 PM 33.5541 -135.5815 245° Southwest 452 520 36,000  Level FlightAware Transoceanic
Mon 09:46:00 PM 33.5019 -135.7176 245° Southwest 452 520 36,000 1,000 Level FlightAware Transoceanic
Mon 09:47:00 PM 33.5304 -135.6434 245° Southwest 426 490 38,000 1,000 Climbing FlightAware Transoceanic
Mon 09:48:00 PM 33.4810 -135.7719 245° Southwest 426 490 38,000  Level FlightAware Transoceanic
Mon 09:49:00 PM 33.4315 -135.9003 245° Southwest 426 490 38,000  Level FlightAware Transoceanic
Mon 09:50:00 PM 33.3819 -136.0285 245° Southwest 426 490 38,000  Level FlightAware Transoceanic
Mon 09:51:00 PM 33.3321 -136.1566 245° Southwest 426 490 38,000  Level FlightAware Transoceanic
Mon 09:52:00 PM 33.2822 -136.2846 245° Southwest 426 490 38,000  Level FlightAware Transoceanic
Mon 09:53:00 PM 33.2322 -136.4124 245° Southwest 426 490 38,000  Level FlightAware Transoceanic
Mon 09:54:00 PM 33.1820 -136.5400 245° Southwest 426 490 38,000  Level FlightAware Transoceanic
Mon 09:55:00 PM 33.1318 -136.6675 245° Southwest 426 490 38,000  Level FlightAware Transoceanic
Mon 09:56:00 PM 33.0813 -136.7949 245° Southwest 426 490 38,000  Level FlightAware Transoceanic
Mon 09:57:00 PM 33.0308 -136.9221 245° Southwest 426 490 38,000  Level FlightAware Transoceanic
Mon 09:58:00 PM 32.9801 -137.0492 245° Southwest 426 490 38,000  Level FlightAware Transoceanic
Mon 09:59:00 PM 32.9293 -137.1761 244° Southwest 426 490 38,000  Level FlightAware Transoceanic
Mon 10:00:00 PM 32.8784 -137.3029 244° Southwest 426 490 38,000  Level FlightAware Transoceanic
Mon 10:01:00 PM 32.8273 -137.4295 244° Southwest 426 490 38,000  Level FlightAware Transoceanic
Mon 10:02:00 PM 32.7761 -137.5560 244° Southwest 426 490 38,000  Level FlightAware Transoceanic
Mon 10:03:00 PM 32.7248 -137.6823 244° Southwest 426 490 38,000  Level FlightAware Transoceanic
Mon 10:04:00 PM 32.6734 -137.8085 244° Southwest 426 490 38,000  Level FlightAware Transoceanic
Mon 10:05:00 PM 32.6218 -137.9346 244° Southwest 426 490 38,000  Level FlightAware Transoceanic
Mon 10:06:00 PM 32.5701 -138.0605 244° Southwest 426 490 38,000  Level FlightAware Transoceanic
Mon 10:07:00 PM 32.5183 -138.1862 244° Southwest 426 490 38,000  Level FlightAware Transoceanic
Mon 10:08:00 PM 32.4664 -138.3118 244° Southwest 426 490 38,000  Level FlightAware Transoceanic
Mon 10:09:00 PM 32.4143 -138.4373 244° Southwest 426 490 38,000  Level FlightAware Transoceanic
Mon 10:10:00 PM 32.3621 -138.5626 244° Southwest 426 490 38,000  Level FlightAware Transoceanic
Mon 10:11:00 PM 32.3098 -138.6878 244° Southwest 426 490 38,000  Level FlightAware Transoceanic
Mon 10:12:00 PM 32.2574 -138.8128 244° Southwest 426 490 38,000  Level FlightAware Transoceanic
Mon 10:13:00 PM 32.2048 -138.9377 244° Southwest 426 490 38,000  Level FlightAware Transoceanic
Mon 10:14:00 PM 32.1521 -139.0625 243° Southwest 426 490 38,000  Level FlightAware Transoceanic
Mon 10:15:00 PM 32.0993 -139.1871 243° Southwest 426 490 38,000  Level FlightAware Transoceanic
Mon 10:16:00 PM 32.0464 -139.3115 243° Southwest 426 490 38,000  Level FlightAware Transoceanic
Mon 10:17:00 PM 31.9934 -139.4358 243° Southwest 426 490 38,000  Level FlightAware Transoceanic
Mon 10:18:00 PM 31.9402 -139.5600 243° Southwest 426 490 38,000  Level FlightAware Transoceanic
Mon 10:19:00 PM 31.8869 -139.6840 243° Southwest 426 490 38,000  Level FlightAware Transoceanic
Mon 10:20:00 PM 31.8335 -139.8079 243° Southwest 426 490 38,000  Level FlightAware Transoceanic
Mon 10:21:00 PM 31.7800 -139.9317 243° Southwest 426 490 38,000  Level FlightAware Transoceanic
Mon 10:22:00 PM 31.7263 -140.0552 243° Southwest 426 490 38,000  Level FlightAware Transoceanic
Mon 10:23:00 PM 31.6726 -140.1787 243° Southwest 426 490 38,000  Level FlightAware Transoceanic
Mon 10:24:00 PM 31.6187 -140.3020 243° Southwest 426 490 38,000  Level FlightAware Transoceanic
Mon 10:25:00 PM 31.5646 -140.4252 243° Southwest 426 490 38,000  Level FlightAware Transoceanic
Mon 10:26:00 PM 31.5105 -140.5482 243° Southwest 426 490 38,000  Level FlightAware Transoceanic
Mon 10:27:00 PM 31.4563 -140.6711 243° Southwest 426 490 38,000  Level FlightAware Transoceanic
Mon 10:28:00 PM 31.4019 -140.7938 243° Southwest 426 490 38,000  Level FlightAware Transoceanic
Mon 10:29:00 PM 31.3475 -140.9164 242° Southwest 426 490 38,000  Level FlightAware Transoceanic
Mon 10:30:00 PM 31.2929 -141.0388 242° Southwest 426 490 38,000  Level FlightAware Transoceanic
Mon 10:31:00 PM 31.2382 -141.1612 242° Southwest 426 490 38,000  Level FlightAware Transoceanic
Mon 10:32:00 PM 31.1833 -141.2833 242° Southwest 426 490 38,000  Level FlightAware Transoceanic
Mon 10:33:00 PM 31.1234 -141.4160 242° Southwest 426 490 38,000  Level FlightAware Transoceanic
Mon 10:34:00 PM 31.0634 -141.5485 242° Southwest 426 490 38,000  Level FlightAware Transoceanic
Mon 10:34:31 PM 31.1833 -141.2833 242° Southwest 453 521 38,000  Level Oakland Oceanic (ODAPS)
Mon 10:35:00 PM 31.0033 -141.6809 242° Southwest 426 490 38,000  Level FlightAware Transoceanic
Mon 10:36:00 PM 30.9430 -141.8131 242° Southwest 426 490 38,000  Level FlightAware Transoceanic
Mon 10:37:00 PM 30.8826 -141.9451 242° Southwest 426 490 38,000  Level FlightAware Transoceanic
Mon 10:38:00 PM 30.8220 -142.0769 242° Southwest 426 490 38,000  Level FlightAware Transoceanic
Mon 10:39:00 PM 30.7613 -142.2086 242° Southwest 426 490 38,000  Level FlightAware Transoceanic
Mon 10:40:00 PM 30.7005 -142.3401 242° Southwest 426 490 38,000  Level FlightAware Transoceanic
Mon 10:41:00 PM 30.6499 -142.4492 242° Southwest 453 521 38,000  Level FlightAware Transoceanic
Mon 10:42:00 PM 30.5900 -142.5779 242° Southwest 453 521 38,000  Level FlightAware Transoceanic
Mon 10:43:00 PM 30.5299 -142.7065 241° Southwest 453 521 38,000  Level FlightAware Transoceanic
Mon 10:44:00 PM 30.4698 -142.8349 241° Southwest 453 521 38,000  Level FlightAware Transoceanic
Mon 10:45:00 PM 30.4095 -142.9632 241° Southwest 453 521 38,000  Level FlightAware Transoceanic
Mon 10:46:00 PM 30.3491 -143.0913 241° Southwest 453 521 38,000  Level FlightAware Transoceanic
Mon 10:47:00 PM 30.2885 -143.2193 241° Southwest 453 521 38,000  Level FlightAware Transoceanic
Mon 10:48:00 PM 30.2279 -143.3470 241° Southwest 453 521 38,000  Level FlightAware Transoceanic
Mon 10:49:00 PM 30.1671 -143.4747 241° Southwest 453 521 38,000  Level FlightAware Transoceanic
Mon 10:50:00 PM 30.1062 -143.6021 241° Southwest 453 521 38,000  Level FlightAware Transoceanic
Mon 10:51:00 PM 30.0451 -143.7295 241° Southwest 453 521 38,000  Level FlightAware Transoceanic
Mon 10:52:00 PM 29.9840 -143.8566 241° Southwest 453 521 38,000  Level FlightAware Transoceanic
Mon 10:53:00 PM 29.9227 -143.9836 241° Southwest 453 521 38,000  Level FlightAware Transoceanic
Mon 10:54:00 PM 29.8613 -144.1105 241° Southwest 453 521 38,000  Level FlightAware Transoceanic
Mon 10:55:00 PM 29.7998 -144.2372 241° Southwest 453 521 38,000  Level FlightAware Transoceanic
Mon 10:56:00 PM 29.7381 -144.3637 241° Southwest 453 521 38,000  Level FlightAware Transoceanic
Mon 10:57:00 PM 29.6764 -144.4901 241° Southwest 453 521 38,000  Level FlightAware Transoceanic
Mon 10:58:00 PM 29.6145 -144.6163 241° Southwest 453 521 38,000  Level FlightAware Transoceanic
Mon 10:59:00 PM 29.5525 -144.7424 240° Southwest 453 521 38,000  Level FlightAware Transoceanic
Mon 11:00:00 PM 29.4904 -144.8683 240° Southwest 453 521 38,000  Level FlightAware Transoceanic
Mon 11:01:00 PM 29.4281 -144.9940 240° Southwest 453 521 38,000  Level FlightAware Transoceanic
Mon 11:02:00 PM 29.3658 -145.1196 240° Southwest 453 521 38,000  Level FlightAware Transoceanic
Mon 11:03:00 PM 29.3033 -145.2451 240° Southwest 453 521 38,000  Level FlightAware Transoceanic
Mon 11:04:00 PM 29.2407 -145.3704 240° Southwest 453 521 38,000  Level FlightAware Transoceanic
Mon 11:05:00 PM 29.1780 -145.4955 240° Southwest 453 521 38,000  Level FlightAware Transoceanic
Mon 11:06:00 PM 29.1152 -145.6205 240° Southwest 453 521 38,000  Level FlightAware Transoceanic
Mon 11:07:00 PM 29.0522 -145.7453 240° Southwest 453 521 38,000  Level FlightAware Transoceanic
Mon 11:08:00 PM 28.9892 -145.8700 240° Southwest 453 521 38,000  Level FlightAware Transoceanic
Mon 11:09:00 PM 28.9260 -145.9946 240° Southwest 453 521 38,000  Level FlightAware Transoceanic
Mon 11:10:00 PM 28.8627 -146.1190 240° Southwest 453 521 38,000  Level FlightAware Transoceanic
Mon 11:11:00 PM 28.7993 -146.2432 240° Southwest 453 521 38,000  Level FlightAware Transoceanic
Mon 11:12:00 PM 28.7358 -146.3673 240° Southwest 453 521 38,000  Level FlightAware Transoceanic
Mon 11:13:00 PM 28.6722 -146.4912 240° Southwest 453 521 38,000  Level FlightAware Transoceanic
Mon 11:14:00 PM 28.6084 -146.6150 240° Southwest 453 521 38,000  Level FlightAware Transoceanic
Mon 11:15:00 PM 28.5446 -146.7386 240° Southwest 453 521 38,000  Level FlightAware Transoceanic
Mon 11:16:00 PM 28.4806 -146.8621 239° Southwest 453 521 38,000  Level FlightAware Transoceanic
Mon 11:17:00 PM 28.4165 -146.9854 239° Southwest 453 521 38,000  Level FlightAware Transoceanic
Mon 11:18:00 PM 28.3524 -147.1086 239° Southwest 453 521 38,000  Level FlightAware Transoceanic
Mon 11:19:00 PM 28.2881 -147.2316 239° Southwest 453 521 38,000  Level FlightAware Transoceanic
Mon 11:20:00 PM 28.2237 -147.3545 239° Southwest 453 521 38,000  Level FlightAware Transoceanic
Mon 11:21:00 PM 28.1591 -147.4772 239° Southwest 453 521 38,000  Level FlightAware Transoceanic
Mon 11:22:00 PM 28.0945 -147.5998 239° Southwest 453 521 38,000  Level FlightAware Transoceanic
Mon 11:23:00 PM 28.0298 -147.7222 239° Southwest 453 521 38,000  Level FlightAware Transoceanic
Mon 11:24:00 PM 27.9650 -147.8445 239° Southwest 453 521 38,000  Level FlightAware Transoceanic
Mon 11:25:00 PM 27.9000 -147.9667 239° Southwest 453 521 38,000  Level FlightAware Transoceanic
Mon 11:26:00 PM 27.8308 -148.0962 239° Southwest 453 521 38,000  Level FlightAware Transoceanic
Mon 11:27:00 PM 27.7614 -148.2256 239° Southwest 453 521 38,000  Level FlightAware Transoceanic
Mon 11:28:00 PM 27.6919 -148.3548 239° Southwest 453 521 38,000  Level FlightAware Transoceanic
Mon 11:29:00 PM 27.6223 -148.4839 239° Southwest 453 521 38,000  Level FlightAware Transoceanic
Mon 11:29:23 PM 27.9000 -147.9667 239° Southwest 454 522 38,000  Level Oakland Oceanic (ODAPS)
Mon 11:30:00 PM 27.5526 -148.6128 239° Southwest 453 521 38,000  Level FlightAware Transoceanic
Mon 11:31:00 PM 27.4828 -148.7415 239° Southwest 453 521 38,000  Level FlightAware Transoceanic
Mon 11:32:00 PM 27.4128 -148.8701 238° Southwest 453 521 38,000  Level FlightAware Transoceanic
Mon 11:33:00 PM 27.3428 -148.9984 238° Southwest 453 521 38,000  Level FlightAware Transoceanic
Mon 11:34:00 PM 27.2726 -149.1267 238° Southwest 453 521 38,000  Level FlightAware Transoceanic
Mon 11:35:00 PM 27.2421 -149.1823 238° Southwest 454 522 38,000  Level FlightAware Transoceanic
Mon 11:36:00 PM 27.1757 -149.3031 238° Southwest 454 522 38,000  Level FlightAware Transoceanic
Mon 11:37:00 PM 27.1092 -149.4237 238° Southwest 454 522 38,000  Level FlightAware Transoceanic
Mon 11:38:00 PM 27.0427 -149.5441 238° Southwest 454 522 38,000  Level FlightAware Transoceanic
Mon 11:39:00 PM 26.9760 -149.6645 238° Southwest 454 522 38,000  Level FlightAware Transoceanic
Mon 11:40:00 PM 26.9092 -149.7847 238° Southwest 454 522 38,000  Level FlightAware Transoceanic
Mon 11:41:00 PM 26.8423 -149.9047 238° Southwest 454 522 38,000  Level FlightAware Transoceanic
Mon 11:42:00 PM 26.7754 -150.0246 238° Southwest 454 522 38,000  Level FlightAware Transoceanic
Mon 11:43:00 PM 26.7083 -150.1444 238° Southwest 454 522 38,000  Level FlightAware Transoceanic
Mon 11:44:00 PM 26.6411 -150.2640 238° Southwest 454 522 38,000  Level FlightAware Transoceanic
Mon 11:45:00 PM 26.5738 -150.3835 238° Southwest 454 522 38,000  Level FlightAware Transoceanic
Mon 11:46:00 PM 26.5064 -150.5029 238° Southwest 454 522 38,000  Level FlightAware Transoceanic
Mon 11:47:00 PM 26.4389 -150.6221 238° Southwest 454 522 38,000  Level FlightAware Transoceanic
Mon 11:48:00 PM 26.3714 -150.7411 238° Southwest 454 522 38,000  Level FlightAware Transoceanic
Mon 11:49:00 PM 26.3037 -150.8600 238° Southwest 454 522 38,000  Level FlightAware Transoceanic
Mon 11:50:00 PM 26.2359 -150.9788 238° Southwest 454 522 38,000  Level FlightAware Transoceanic
Mon 11:51:00 PM 26.1680 -151.0975 237° Southwest 454 522 38,000  Level FlightAware Transoceanic
Mon 11:52:00 PM 26.1001 -151.2160 237° Southwest 454 522 38,000  Level FlightAware Transoceanic
Mon 11:53:00 PM 26.0320 -151.3344 237° Southwest 454 522 38,000  Level FlightAware Transoceanic
Mon 11:54:00 PM 25.9638 -151.4526 237° Southwest 454 522 38,000  Level FlightAware Transoceanic
Mon 11:55:00 PM 25.8956 -151.5707 237° Southwest 454 522 38,000  Level FlightAware Transoceanic
Mon 11:56:00 PM 25.8272 -151.6886 237° Southwest 454 522 38,000  Level FlightAware Transoceanic
Mon 11:57:00 PM 25.7588 -151.8065 237° Southwest 454 522 38,000  Level FlightAware Transoceanic
Mon 11:58:00 PM 25.6902 -151.9242 237° Southwest 454 522 38,000  Level FlightAware Transoceanic
Mon 11:59:00 PM 25.6216 -152.0417 237° Southwest 454 522 38,000  Level FlightAware Transoceanic
Tue 12:00:00 AM 25.5528 -152.1591 237° Southwest 454 522 38,000  Level FlightAware Transoceanic
Tue 12:01:00 AM 25.4840 -152.2764 237° Southwest 454 522 38,000  Level FlightAware Transoceanic
Tue 12:02:00 AM 25.4151 -152.3936 237° Southwest 454 522 38,000  Level FlightAware Transoceanic
Tue 12:03:00 AM 25.3461 -152.5106 237° Southwest 454 522 38,000  Level FlightAware Transoceanic
Tue 12:04:00 AM 25.2770 -152.6275 237° Southwest 454 522 38,000  Level FlightAware Transoceanic
Tue 12:05:00 AM 25.2078 -152.7442 237° Southwest 454 522 38,000  Level FlightAware Transoceanic
Tue 12:06:00 AM 25.1385 -152.8608 237° Southwest 454 522 38,000  Level FlightAware Transoceanic
Tue 12:07:00 AM 25.0691 -152.9773 237° Southwest 454 522 38,000  Level FlightAware Transoceanic
Tue 12:08:00 AM 24.9996 -153.0937 237° Southwest 454 522 38,000  Level FlightAware Transoceanic
Tue 12:09:00 AM 24.9301 -153.2099 237° Southwest 454 522 38,000  Level FlightAware Transoceanic
Tue 12:10:00 AM 24.8604 -153.3260 236° Southwest 454 522 38,000  Level FlightAware Transoceanic
Tue 12:11:00 AM 24.7907 -153.4419 236° Southwest 454 522 38,000  Level FlightAware Transoceanic
Tue 12:12:00 AM 24.7208 -153.5578 236° Southwest 454 522 38,000  Level FlightAware Transoceanic
Tue 12:13:00 AM 24.6509 -153.6734 236° Southwest 454 522 38,000  Level FlightAware Transoceanic
Tue 12:14:00 AM 24.5809 -153.7890 236° Southwest 454 522 38,000  Level FlightAware Transoceanic
Tue 12:15:00 AM 24.5108 -153.9045 236° Southwest 454 522 38,000  Level FlightAware Transoceanic
Tue 12:16:00 AM 24.4406 -154.0198 236° Southwest 454 522 38,000  Level FlightAware Transoceanic
Tue 12:17:00 AM 24.3704 -154.1349 236° Southwest 454 522 38,000  Level FlightAware Transoceanic
Tue 12:18:00 AM 24.3000 -154.2500 236° Southwest 454 522 38,000  Level FlightAware Transoceanic
Tue 12:19:00 AM 24.2238 -154.3740 236° Southwest 454 522 38,000 -1,395 Level FlightAware Transoceanic
Tue 12:19:26 AM 24.2167 -154.3667 236° Southwest 470 541 36,000  Descending Honolulu Center
Tue 12:20:00 AM 24.1475 -154.4978 236° Southwest 454 522 38,000  Climbing FlightAware Transoceanic
Tue 12:20:26 AM 24.1500 -154.4833 238° Southwest 460 529 36,000  Descending Honolulu Center
Tue 12:21:00 AM 24.0710 -154.6215 236° Southwest 454 522 38,000  Climbing FlightAware Transoceanic
Tue 12:21:26 AM 24.0667 -154.6000 232° Southwest 460 529 36,000  Descending Honolulu Center
Tue 12:22:00 AM 23.9945 -154.7451 236° Southwest 454 522 38,000  Climbing FlightAware Transoceanic
Tue 12:22:26 AM 23.9833 -154.7000 228° Southwest 480 552 36,000  Descending Honolulu Center
Tue 12:23:00 AM 23.9179 -154.8685 236° Southwest 454 522 38,000  Climbing FlightAware Transoceanic
Tue 12:23:26 AM 23.9000 -154.8000 228° Southwest 470 541 36,000  Descending Honolulu Center
Tue 12:24:00 AM 23.8412 -154.9917 236° Southwest 454 522 38,000  Climbing FlightAware Transoceanic
Tue 12:24:26 AM 23.8000 -154.9000 222° Southwest 460 529 36,000 -1,379 Descending Honolulu Center
Tue 12:25:27 AM 23.7167 -155.0000 228° Southwest 470 541 36,000  Level Honolulu Center
Tue 12:26:27 AM 23.6167 -155.1000 223° Southwest 460 529 36,000  Level Honolulu Center
Tue 12:27:27 AM 23.5333 -155.2000 228° Southwest 460 529 36,000  Level Honolulu Center
Tue 12:29:27 AM 23.3333 -155.4000 223° Southwest 470 541 36,000  Level Honolulu Center
Tue 12:30:27 AM 23.2500 -155.5000 228° Southwest 470 541 36,000  Level Honolulu Center
Tue 12:31:27 AM 23.1667 -155.6000 228° Southwest 470 541 36,000  Level Honolulu Center
Tue 12:32:27 AM 23.0667 -155.7000 223° Southwest 470 541 36,000 992 Level Honolulu Center
Tue 12:33:28 AM 23.0000 -155.7833 229° Southwest 470 541 38,000 1,000 Climbing Honolulu Center
Tue 12:34:27 AM 22.8833 -155.9000 223° Southwest 470 541 38,000  Level Honolulu Center
Tue 12:35:28 AM 22.8000 -156.0000 228° Southwest 470 541 38,000  Level Honolulu Center
Tue 12:36:28 AM 22.7000 -156.1167 227° Southwest 470 541 38,000  Level Honolulu Center
Tue 12:37:28 AM 22.6167 -156.2167 228° Southwest 470 541 38,000  Level Honolulu Center
Tue 12:38:28 AM 22.5167 -156.3167 223° Southwest 470 541 38,000 -700 Level Honolulu Center
Tue 12:39:28 AM 22.4167 -156.4167 223° Southwest 470 541 36,600 -2,050 Descending Honolulu Center
Tue 12:40:28 AM 22.3333 -156.5167 228° Southwest 470 541 33,900 -2,876 Descending Honolulu Center
Tue 12:41:29 AM 22.2333 -156.6167 223° Southwest 480 552 30,800 -2,700 Descending Honolulu Center
Tue 12:42:28 AM 22.1500 -156.7167 228° Southwest 470 541 28,500 -2,370 Descending Honolulu Center
Tue 12:43:28 AM 22.0500 -156.8167 223° Southwest 450 518 26,100 -2,231 Descending Honolulu Center
Tue 12:44:29 AM 21.9667 -156.9000 223° Southwest 440 506 24,000 -2,132 Descending Honolulu Center
Tue 12:45:29 AM 21.8833 -157.0000 228° Southwest 420 483 21,800 -2,250 Descending Honolulu Center
Tue 12:46:29 AM 21.8167 -157.0667 223° Southwest 420 483 19,500 -2,250 Descending Honolulu Center
Tue 12:47:29 AM 21.7167 -157.1667 223° Southwest 400 460 17,300 -2,150 Descending Honolulu Center
Tue 12:48:29 AM 21.6500 -157.2500 229° Southwest 390 449 15,200 -2,200 Descending Honolulu Center
Tue 12:49:29 AM 21.5667 -157.3333 223° Southwest 380 437 12,900 -2,182 Descending Honolulu Center
Tue 12:50:30 AM 21.5000 -157.4167 229° Southwest 360 414 10,800 -1,388 Descending Honolulu Center
Tue 12:51:30 AM 21.4500 -157.5000 237° Southwest 330 380 10,100 -403 Descending Honolulu Center
Tue 12:52:29 AM 21.4000 -157.5667 231° Southwest 310 357 10,000 -350 Descending Honolulu Center
Tue 12:53:30 AM 21.3667 -157.6500 247° West 280 322 9,400 -992 Descending Honolulu Center
Tue 12:54:30 AM 21.3167 -157.7167 231° Southwest 280 322 8,000 -700 Descending Honolulu Center
Tue 12:55:30 AM 21.2833 -157.7833 242° Southwest 230 265 8,000  Level Honolulu Center

Login

Don't have an account? Register now (free) for customized features, flight alerts, and more!